<?xml version="1.0" encoding="UTF-8" standalone="no" ?>
<gpx xmlns="http://www.topografix.com/GPX/1/1" xmlns:xsi="http://www.w3.org/2001/XMLSchema-instance" xsi:schemaLocation="http://www.topografix.com/GPX/1/1 http://www.topografix.com/GPX/1/1/gpx.xsd" version="1.1" creator="VisuGPX - https://www.visugpx.com">
  <metadata>
    <name>St Félicien Ardèche Col du Marchand</name>
    <desc><![CDATA[St Félicien Ardèche Col du Marchand 11 août 2018]]></desc>
  </metadata>
  <trk>
    <name><![CDATA[2018-08-07 14:21:28]]></name>
    <trkseg>
      <trkpt lat="45.10571" lon="4.5649">
        <ele>718.72</ele>
        <time>2018-08-07T08:34:56Z</time>
      </trkpt>
      <trkpt lat="45.10572" lon="4.56482">
        <ele>718.72</ele>
        <time>2018-08-07T08:34:57Z</time>
      </trkpt>
      <trkpt lat="45.10575" lon="4.5646">
        <ele>718.72</ele>
        <time>2018-08-07T08:35:00Z</time>
      </trkpt>
      <trkpt lat="45.10601" lon="4.56228">
        <ele>718.72</ele>
        <time>2018-08-07T08:35:15Z</time>
      </trkpt>
      <trkpt lat="45.10613" lon="4.56233">
        <ele>720.16</ele>
        <time>2018-08-07T08:35:30Z</time>
      </trkpt>
      <trkpt lat="45.10614" lon="4.56234">
        <ele>722.09</ele>
        <time>2018-08-07T08:35:34Z</time>
      </trkpt>
      <trkpt lat="45.10623" lon="4.56236">
        <ele>722.09</ele>
        <time>2018-08-07T08:35:50Z</time>
      </trkpt>
      <trkpt lat="45.10632" lon="4.56237">
        <ele>724.01</ele>
        <time>2018-08-07T08:36:07Z</time>
      </trkpt>
      <trkpt lat="45.10644" lon="4.56243">
        <ele>724.97</ele>
        <time>2018-08-07T08:36:21Z</time>
      </trkpt>
      <trkpt lat="45.10663" lon="4.56245">
        <ele>726.89</ele>
        <time>2018-08-07T08:36:36Z</time>
      </trkpt>
      <trkpt lat="45.10676" lon="4.56253">
        <ele>727.86</ele>
        <time>2018-08-07T08:36:52Z</time>
      </trkpt>
      <trkpt lat="45.10697" lon="4.56258">
        <ele>729.78</ele>
        <time>2018-08-07T08:37:10Z</time>
      </trkpt>
      <trkpt lat="45.10713" lon="4.56262">
        <ele>731.22</ele>
        <time>2018-08-07T08:37:27Z</time>
      </trkpt>
      <trkpt lat="45.10717" lon="4.56266">
        <ele>733.62</ele>
        <time>2018-08-07T08:37:38Z</time>
      </trkpt>
      <trkpt lat="45.10723" lon="4.56264">
        <ele>736.03</ele>
        <time>2018-08-07T08:37:56Z</time>
      </trkpt>
      <trkpt lat="45.10737" lon="4.56269">
        <ele>737.95</ele>
        <time>2018-08-07T08:38:13Z</time>
      </trkpt>
      <trkpt lat="45.10757" lon="4.56272">
        <ele>739.87</ele>
        <time>2018-08-07T08:38:32Z</time>
      </trkpt>
      <trkpt lat="45.10777" lon="4.56276">
        <ele>741.31</ele>
        <time>2018-08-07T08:38:48Z</time>
      </trkpt>
      <trkpt lat="45.10794" lon="4.56286">
        <ele>743.24</ele>
        <time>2018-08-07T08:39:09Z</time>
      </trkpt>
      <trkpt lat="45.10814" lon="4.56305">
        <ele>745.64</ele>
        <time>2018-08-07T08:39:28Z</time>
      </trkpt>
      <trkpt lat="45.10824" lon="4.5632">
        <ele>748.52</ele>
        <time>2018-08-07T08:39:44Z</time>
      </trkpt>
      <trkpt lat="45.10831" lon="4.56332">
        <ele>749.97</ele>
        <time>2018-08-07T08:40:00Z</time>
      </trkpt>
      <trkpt lat="45.10841" lon="4.56357">
        <ele>751.89</ele>
        <time>2018-08-07T08:40:18Z</time>
      </trkpt>
      <trkpt lat="45.1085" lon="4.56372">
        <ele>753.33</ele>
        <time>2018-08-07T08:40:35Z</time>
      </trkpt>
      <trkpt lat="45.10857" lon="4.56385">
        <ele>755.73</ele>
        <time>2018-08-07T08:40:51Z</time>
      </trkpt>
      <trkpt lat="45.10865" lon="4.56401">
        <ele>757.18</ele>
        <time>2018-08-07T08:41:06Z</time>
      </trkpt>
      <trkpt lat="45.1087" lon="4.56419">
        <ele>758.62</ele>
        <time>2018-08-07T08:41:21Z</time>
      </trkpt>
      <trkpt lat="45.10864" lon="4.56422">
        <ele>761.02</ele>
        <time>2018-08-07T08:41:42Z</time>
      </trkpt>
      <trkpt lat="45.10868" lon="4.5643">
        <ele>762.46</ele>
        <time>2018-08-07T08:42:04Z</time>
      </trkpt>
      <trkpt lat="45.10874" lon="4.56444">
        <ele>764.39</ele>
        <time>2018-08-07T08:42:22Z</time>
      </trkpt>
      <trkpt lat="45.10876" lon="4.56467">
        <ele>766.31</ele>
        <time>2018-08-07T08:42:38Z</time>
      </trkpt>
      <trkpt lat="45.10878" lon="4.56475">
        <ele>767.75</ele>
        <time>2018-08-07T08:42:43Z</time>
      </trkpt>
      <trkpt lat="45.10879" lon="4.5649">
        <ele>769.19</ele>
        <time>2018-08-07T08:43:02Z</time>
      </trkpt>
      <trkpt lat="45.10879" lon="4.56504">
        <ele>771.11</ele>
        <time>2018-08-07T08:43:19Z</time>
      </trkpt>
      <trkpt lat="45.10884" lon="4.56516">
        <ele>774</ele>
        <time>2018-08-07T08:43:42Z</time>
      </trkpt>
      <trkpt lat="45.10885" lon="4.5653">
        <ele>775.92</ele>
        <time>2018-08-07T08:43:58Z</time>
      </trkpt>
      <trkpt lat="45.10889" lon="4.56546">
        <ele>777.84</ele>
        <time>2018-08-07T08:44:26Z</time>
      </trkpt>
      <trkpt lat="45.10885" lon="4.56546">
        <ele>780.73</ele>
        <time>2018-08-07T08:44:53Z</time>
      </trkpt>
      <trkpt lat="45.10884" lon="4.56557">
        <ele>782.17</ele>
        <time>2018-08-07T08:45:15Z</time>
      </trkpt>
      <trkpt lat="45.10891" lon="4.56569">
        <ele>784.57</ele>
        <time>2018-08-07T08:45:34Z</time>
      </trkpt>
      <trkpt lat="45.10898" lon="4.56584">
        <ele>786.5</ele>
        <time>2018-08-07T08:45:51Z</time>
      </trkpt>
      <trkpt lat="45.109" lon="4.56592">
        <ele>789.38</ele>
        <time>2018-08-07T08:46:03Z</time>
      </trkpt>
      <trkpt lat="45.10894" lon="4.56598">
        <ele>791.78</ele>
        <time>2018-08-07T08:46:33Z</time>
      </trkpt>
      <trkpt lat="45.10891" lon="4.56603">
        <ele>794.67</ele>
        <time>2018-08-07T08:47:05Z</time>
      </trkpt>
      <trkpt lat="45.10893" lon="4.56621">
        <ele>797.07</ele>
        <time>2018-08-07T08:47:29Z</time>
      </trkpt>
      <trkpt lat="45.10894" lon="4.56632">
        <ele>798.99</ele>
        <time>2018-08-07T08:47:51Z</time>
      </trkpt>
      <trkpt lat="45.10895" lon="4.56651">
        <ele>801.88</ele>
        <time>2018-08-07T08:48:07Z</time>
      </trkpt>
      <trkpt lat="45.10899" lon="4.56657">
        <ele>802.84</ele>
        <time>2018-08-07T08:48:25Z</time>
      </trkpt>
      <trkpt lat="45.10903" lon="4.5666">
        <ele>804.28</ele>
        <time>2018-08-07T08:48:45Z</time>
      </trkpt>
      <trkpt lat="45.1091" lon="4.56676">
        <ele>806.68</ele>
        <time>2018-08-07T08:49:04Z</time>
      </trkpt>
      <trkpt lat="45.10911" lon="4.56687">
        <ele>808.61</ele>
        <time>2018-08-07T08:49:25Z</time>
      </trkpt>
      <trkpt lat="45.10914" lon="4.56695">
        <ele>811.49</ele>
        <time>2018-08-07T08:49:51Z</time>
      </trkpt>
      <trkpt lat="45.10918" lon="4.56707">
        <ele>813.41</ele>
        <time>2018-08-07T08:50:08Z</time>
      </trkpt>
      <trkpt lat="45.10925" lon="4.56723">
        <ele>815.82</ele>
        <time>2018-08-07T08:50:25Z</time>
      </trkpt>
      <trkpt lat="45.10929" lon="4.56724">
        <ele>816.78</ele>
        <time>2018-08-07T08:50:51Z</time>
      </trkpt>
      <trkpt lat="45.1093" lon="4.56729">
        <ele>819.66</ele>
        <time>2018-08-07T08:51:16Z</time>
      </trkpt>
      <trkpt lat="45.10929" lon="4.56739">
        <ele>820.14</ele>
        <time>2018-08-07T08:51:36Z</time>
      </trkpt>
      <trkpt lat="45.10933" lon="4.56743">
        <ele>822.06</ele>
        <time>2018-08-07T08:51:45Z</time>
      </trkpt>
      <trkpt lat="45.10938" lon="4.5676">
        <ele>824.47</ele>
        <time>2018-08-07T08:52:06Z</time>
      </trkpt>
      <trkpt lat="45.1094" lon="4.56777">
        <ele>825.91</ele>
        <time>2018-08-07T08:52:27Z</time>
      </trkpt>
      <trkpt lat="45.10942" lon="4.56778">
        <ele>828.31</ele>
        <time>2018-08-07T08:52:47Z</time>
      </trkpt>
      <trkpt lat="45.10947" lon="4.56783">
        <ele>831.2</ele>
        <time>2018-08-07T08:53:03Z</time>
      </trkpt>
      <trkpt lat="45.10953" lon="4.56812">
        <ele>832.16</ele>
        <time>2018-08-07T08:53:22Z</time>
      </trkpt>
      <trkpt lat="45.10951" lon="4.56823">
        <ele>835.04</ele>
        <time>2018-08-07T08:53:45Z</time>
      </trkpt>
      <trkpt lat="45.10954" lon="4.56827">
        <ele>836.96</ele>
        <time>2018-08-07T08:54:12Z</time>
      </trkpt>
      <trkpt lat="45.10953" lon="4.56835">
        <ele>837.93</ele>
        <time>2018-08-07T08:54:25Z</time>
      </trkpt>
      <trkpt lat="45.10952" lon="4.56842">
        <ele>838.89</ele>
        <time>2018-08-07T08:54:46Z</time>
      </trkpt>
      <trkpt lat="45.10958" lon="4.56846">
        <ele>840.81</ele>
        <time>2018-08-07T08:55:07Z</time>
      </trkpt>
      <trkpt lat="45.1096" lon="4.56852">
        <ele>842.25</ele>
        <time>2018-08-07T08:55:22Z</time>
      </trkpt>
      <trkpt lat="45.10955" lon="4.5685">
        <ele>843.69</ele>
        <time>2018-08-07T08:55:42Z</time>
      </trkpt>
      <trkpt lat="45.10956" lon="4.56856">
        <ele>845.62</ele>
        <time>2018-08-07T08:56:02Z</time>
      </trkpt>
      <trkpt lat="45.10962" lon="4.56855">
        <ele>847.06</ele>
        <time>2018-08-07T08:56:29Z</time>
      </trkpt>
      <trkpt lat="45.10959" lon="4.56853">
        <ele>848.5</ele>
        <time>2018-08-07T08:56:59Z</time>
      </trkpt>
      <trkpt lat="45.10957" lon="4.56856">
        <ele>850.42</ele>
        <time>2018-08-07T08:57:31Z</time>
      </trkpt>
      <trkpt lat="45.1096" lon="4.56856">
        <ele>852.83</ele>
        <time>2018-08-07T08:57:57Z</time>
      </trkpt>
      <trkpt lat="45.10959" lon="4.56865">
        <ele>852.83</ele>
        <time>2018-08-07T08:58:21Z</time>
      </trkpt>
      <trkpt lat="45.10957" lon="4.56879">
        <ele>855.71</ele>
        <time>2018-08-07T08:58:37Z</time>
      </trkpt>
      <trkpt lat="45.10953" lon="4.56893">
        <ele>858.11</ele>
        <time>2018-08-07T08:58:53Z</time>
      </trkpt>
      <trkpt lat="45.10947" lon="4.56906">
        <ele>860.04</ele>
        <time>2018-08-07T08:59:11Z</time>
      </trkpt>
      <trkpt lat="45.10944" lon="4.56911">
        <ele>861</ele>
        <time>2018-08-07T08:59:30Z</time>
      </trkpt>
      <trkpt lat="45.10939" lon="4.56916">
        <ele>862.44</ele>
        <time>2018-08-07T08:59:52Z</time>
      </trkpt>
      <trkpt lat="45.10938" lon="4.56922">
        <ele>864.36</ele>
        <time>2018-08-07T09:00:18Z</time>
      </trkpt>
      <trkpt lat="45.10935" lon="4.56933">
        <ele>867.25</ele>
        <time>2018-08-07T09:00:38Z</time>
      </trkpt>
      <trkpt lat="45.10931" lon="4.56945">
        <ele>869.17</ele>
        <time>2018-08-07T09:00:55Z</time>
      </trkpt>
      <trkpt lat="45.10922" lon="4.56953">
        <ele>870.61</ele>
        <time>2018-08-07T09:01:14Z</time>
      </trkpt>
      <trkpt lat="45.10915" lon="4.5695">
        <ele>872.53</ele>
        <time>2018-08-07T09:01:40Z</time>
      </trkpt>
      <trkpt lat="45.10913" lon="4.56957">
        <ele>873.5</ele>
        <time>2018-08-07T09:02:03Z</time>
      </trkpt>
      <trkpt lat="45.10903" lon="4.56965">
        <ele>875.9</ele>
        <time>2018-08-07T09:02:27Z</time>
      </trkpt>
      <trkpt lat="45.10895" lon="4.5697">
        <ele>878.3</ele>
        <time>2018-08-07T09:02:43Z</time>
      </trkpt>
      <trkpt lat="45.10886" lon="4.56976">
        <ele>879.74</ele>
        <time>2018-08-07T09:02:58Z</time>
      </trkpt>
      <trkpt lat="45.10879" lon="4.56983">
        <ele>881.67</ele>
        <time>2018-08-07T09:03:14Z</time>
      </trkpt>
      <trkpt lat="45.10878" lon="4.56988">
        <ele>884.07</ele>
        <time>2018-08-07T09:03:31Z</time>
      </trkpt>
      <trkpt lat="45.10875" lon="4.56999">
        <ele>886.47</ele>
        <time>2018-08-07T09:03:48Z</time>
      </trkpt>
      <trkpt lat="45.10857" lon="4.57011">
        <ele>888.4</ele>
        <time>2018-08-07T09:04:04Z</time>
      </trkpt>
      <trkpt lat="45.10854" lon="4.57019">
        <ele>889.36</ele>
        <time>2018-08-07T09:04:16Z</time>
      </trkpt>
      <trkpt lat="45.10852" lon="4.57022">
        <ele>890.8</ele>
        <time>2018-08-07T09:04:41Z</time>
      </trkpt>
      <trkpt lat="45.10847" lon="4.57025">
        <ele>891.76</ele>
        <time>2018-08-07T09:05:09Z</time>
      </trkpt>
      <trkpt lat="45.10846" lon="4.5703">
        <ele>892.72</ele>
        <time>2018-08-07T09:05:26Z</time>
      </trkpt>
      <trkpt lat="45.10846" lon="4.57034">
        <ele>894.16</ele>
        <time>2018-08-07T09:05:41Z</time>
      </trkpt>
      <trkpt lat="45.10853" lon="4.57029">
        <ele>895.12</ele>
        <time>2018-08-07T09:06:05Z</time>
      </trkpt>
      <trkpt lat="45.10855" lon="4.5704">
        <ele>896.09</ele>
        <time>2018-08-07T09:06:23Z</time>
      </trkpt>
      <trkpt lat="45.10856" lon="4.57047">
        <ele>897.05</ele>
        <time>2018-08-07T09:06:51Z</time>
      </trkpt>
      <trkpt lat="45.10858" lon="4.57054">
        <ele>897.05</ele>
        <time>2018-08-07T09:07:18Z</time>
      </trkpt>
      <trkpt lat="45.10861" lon="4.57067">
        <ele>898.01</ele>
        <time>2018-08-07T09:07:38Z</time>
      </trkpt>
      <trkpt lat="45.10861" lon="4.57073">
        <ele>899.45</ele>
        <time>2018-08-07T09:07:49Z</time>
      </trkpt>
      <trkpt lat="45.10862" lon="4.57074">
        <ele>900.89</ele>
        <time>2018-08-07T09:08:12Z</time>
      </trkpt>
      <trkpt lat="45.10861" lon="4.57082">
        <ele>901.85</ele>
        <time>2018-08-07T09:08:31Z</time>
      </trkpt>
      <trkpt lat="45.10858" lon="4.57099">
        <ele>903.3</ele>
        <time>2018-08-07T09:08:52Z</time>
      </trkpt>
      <trkpt lat="45.10858" lon="4.57105">
        <ele>903.3</ele>
        <time>2018-08-07T09:08:56Z</time>
      </trkpt>
      <trkpt lat="45.10863" lon="4.57132">
        <ele>903.78</ele>
        <time>2018-08-07T09:09:11Z</time>
      </trkpt>
      <trkpt lat="45.10863" lon="4.57147">
        <ele>905.22</ele>
        <time>2018-08-07T09:09:29Z</time>
      </trkpt>
      <trkpt lat="45.10863" lon="4.57176">
        <ele>905.7</ele>
        <time>2018-08-07T09:09:48Z</time>
      </trkpt>
      <trkpt lat="45.10866" lon="4.57194">
        <ele>906.18</ele>
        <time>2018-08-07T09:10:05Z</time>
      </trkpt>
      <trkpt lat="45.10869" lon="4.57205">
        <ele>906.66</ele>
        <time>2018-08-07T09:10:25Z</time>
      </trkpt>
      <trkpt lat="45.10874" lon="4.57233">
        <ele>908.1</ele>
        <time>2018-08-07T09:10:46Z</time>
      </trkpt>
      <trkpt lat="45.10878" lon="4.5725">
        <ele>909.06</ele>
        <time>2018-08-07T09:11:04Z</time>
      </trkpt>
      <trkpt lat="45.10879" lon="4.57277">
        <ele>910.51</ele>
        <time>2018-08-07T09:11:22Z</time>
      </trkpt>
      <trkpt lat="45.10877" lon="4.57294">
        <ele>911.47</ele>
        <time>2018-08-07T09:11:39Z</time>
      </trkpt>
      <trkpt lat="45.10879" lon="4.57311">
        <ele>911.47</ele>
        <time>2018-08-07T09:12:03Z</time>
      </trkpt>
      <trkpt lat="45.1087" lon="4.57304">
        <ele>912.43</ele>
        <time>2018-08-07T09:12:29Z</time>
      </trkpt>
      <trkpt lat="45.10866" lon="4.57298">
        <ele>913.39</ele>
        <time>2018-08-07T09:12:59Z</time>
      </trkpt>
      <trkpt lat="45.10865" lon="4.573">
        <ele>914.83</ele>
        <time>2018-08-07T09:13:07Z</time>
      </trkpt>
      <trkpt lat="45.10867" lon="4.57303">
        <ele>915.79</ele>
        <time>2018-08-07T09:13:34Z</time>
      </trkpt>
      <trkpt lat="45.10871" lon="4.57309">
        <ele>915.79</ele>
        <time>2018-08-07T09:14:00Z</time>
      </trkpt>
      <trkpt lat="45.10876" lon="4.57307">
        <ele>916.75</ele>
        <time>2018-08-07T09:14:21Z</time>
      </trkpt>
      <trkpt lat="45.10883" lon="4.57306">
        <ele>917.24</ele>
        <time>2018-08-07T09:14:36Z</time>
      </trkpt>
      <trkpt lat="45.10885" lon="4.57309">
        <ele>917.24</ele>
        <time>2018-08-07T09:14:42Z</time>
      </trkpt>
      <trkpt lat="45.10893" lon="4.57311">
        <ele>917.72</ele>
        <time>2018-08-07T09:14:55Z</time>
      </trkpt>
      <trkpt lat="45.10898" lon="4.57318">
        <ele>918.68</ele>
        <time>2018-08-07T09:15:12Z</time>
      </trkpt>
      <trkpt lat="45.10901" lon="4.57327">
        <ele>920.12</ele>
        <time>2018-08-07T09:15:22Z</time>
      </trkpt>
      <trkpt lat="45.10911" lon="4.57319">
        <ele>922.04</ele>
        <time>2018-08-07T09:15:41Z</time>
      </trkpt>
      <trkpt lat="45.10921" lon="4.57324">
        <ele>922.52</ele>
        <time>2018-08-07T09:15:56Z</time>
      </trkpt>
      <trkpt lat="45.10931" lon="4.57325">
        <ele>923.96</ele>
        <time>2018-08-07T09:16:12Z</time>
      </trkpt>
      <trkpt lat="45.10942" lon="4.57331">
        <ele>924.45</ele>
        <time>2018-08-07T09:16:33Z</time>
      </trkpt>
      <trkpt lat="45.10954" lon="4.57344">
        <ele>925.89</ele>
        <time>2018-08-07T09:16:49Z</time>
      </trkpt>
      <trkpt lat="45.10967" lon="4.57363">
        <ele>925.41</ele>
        <time>2018-08-07T09:17:09Z</time>
      </trkpt>
      <trkpt lat="45.10983" lon="4.57391">
        <ele>926.37</ele>
        <time>2018-08-07T09:17:30Z</time>
      </trkpt>
      <trkpt lat="45.10991" lon="4.57397">
        <ele>928.29</ele>
        <time>2018-08-07T09:17:52Z</time>
      </trkpt>
      <trkpt lat="45.10986" lon="4.57396">
        <ele>928.77</ele>
        <time>2018-08-07T09:18:12Z</time>
      </trkpt>
      <trkpt lat="45.10975" lon="4.57397">
        <ele>930.21</ele>
        <time>2018-08-07T09:18:34Z</time>
      </trkpt>
      <trkpt lat="45.10972" lon="4.57398">
        <ele>930.69</ele>
        <time>2018-08-07T09:19:02Z</time>
      </trkpt>
      <trkpt lat="45.10971" lon="4.57394">
        <ele>931.17</ele>
        <time>2018-08-07T09:19:30Z</time>
      </trkpt>
      <trkpt lat="45.1098" lon="4.57391">
        <ele>931.65</ele>
        <time>2018-08-07T09:19:55Z</time>
      </trkpt>
      <trkpt lat="45.10988" lon="4.57397">
        <ele>933.1</ele>
        <time>2018-08-07T09:20:13Z</time>
      </trkpt>
      <trkpt lat="45.10991" lon="4.57404">
        <ele>933.58</ele>
        <time>2018-08-07T09:20:32Z</time>
      </trkpt>
      <trkpt lat="45.10997" lon="4.57414">
        <ele>934.54</ele>
        <time>2018-08-07T09:20:54Z</time>
      </trkpt>
      <trkpt lat="45.11009" lon="4.57426">
        <ele>935.98</ele>
        <time>2018-08-07T09:21:12Z</time>
      </trkpt>
      <trkpt lat="45.11014" lon="4.57435">
        <ele>937.42</ele>
        <time>2018-08-07T09:21:21Z</time>
      </trkpt>
      <trkpt lat="45.11019" lon="4.57446">
        <ele>937.9</ele>
        <time>2018-08-07T09:21:42Z</time>
      </trkpt>
      <trkpt lat="45.11029" lon="4.57456">
        <ele>939.83</ele>
        <time>2018-08-07T09:21:59Z</time>
      </trkpt>
      <trkpt lat="45.11036" lon="4.5747">
        <ele>940.79</ele>
        <time>2018-08-07T09:22:16Z</time>
      </trkpt>
      <trkpt lat="45.11033" lon="4.57481">
        <ele>942.71</ele>
        <time>2018-08-07T09:22:34Z</time>
      </trkpt>
      <trkpt lat="45.11032" lon="4.57484">
        <ele>943.67</ele>
        <time>2018-08-07T09:22:54Z</time>
      </trkpt>
      <trkpt lat="45.11033" lon="4.57486">
        <ele>942.23</ele>
        <time>2018-08-07T09:22:57Z</time>
      </trkpt>
      <trkpt lat="45.11036" lon="4.57505">
        <ele>942.23</ele>
        <time>2018-08-07T09:23:13Z</time>
      </trkpt>
      <trkpt lat="45.11035" lon="4.57513">
        <ele>943.67</ele>
        <time>2018-08-07T09:23:20Z</time>
      </trkpt>
      <trkpt lat="45.11039" lon="4.57528">
        <ele>943.67</ele>
        <time>2018-08-07T09:23:36Z</time>
      </trkpt>
      <trkpt lat="45.11037" lon="4.57544">
        <ele>944.63</ele>
        <time>2018-08-07T09:23:53Z</time>
      </trkpt>
      <trkpt lat="45.11037" lon="4.57557">
        <ele>945.59</ele>
        <time>2018-08-07T09:24:08Z</time>
      </trkpt>
      <trkpt lat="45.11037" lon="4.57573">
        <ele>947.04</ele>
        <time>2018-08-07T09:24:24Z</time>
      </trkpt>
      <trkpt lat="45.11035" lon="4.57578">
        <ele>948</ele>
        <time>2018-08-07T09:24:39Z</time>
      </trkpt>
      <trkpt lat="45.11032" lon="4.57587">
        <ele>947.52</ele>
        <time>2018-08-07T09:24:55Z</time>
      </trkpt>
      <trkpt lat="45.11029" lon="4.57593">
        <ele>947.04</ele>
        <time>2018-08-07T09:25:11Z</time>
      </trkpt>
      <trkpt lat="45.11029" lon="4.57594">
        <ele>948.48</ele>
        <time>2018-08-07T09:25:14Z</time>
      </trkpt>
      <trkpt lat="45.11028" lon="4.57607">
        <ele>948.48</ele>
        <time>2018-08-07T09:25:30Z</time>
      </trkpt>
      <trkpt lat="45.11026" lon="4.57612">
        <ele>948.96</ele>
        <time>2018-08-07T09:25:37Z</time>
      </trkpt>
      <trkpt lat="45.11026" lon="4.57616">
        <ele>948</ele>
        <time>2018-08-07T09:25:57Z</time>
      </trkpt>
      <trkpt lat="45.11022" lon="4.57618">
        <ele>948.48</ele>
        <time>2018-08-07T09:26:14Z</time>
      </trkpt>
      <trkpt lat="45.11021" lon="4.57625">
        <ele>948</ele>
        <time>2018-08-07T09:26:27Z</time>
      </trkpt>
      <trkpt lat="45.11019" lon="4.57632">
        <ele>949.92</ele>
        <time>2018-08-07T09:26:48Z</time>
      </trkpt>
      <trkpt lat="45.1102" lon="4.57634">
        <ele>950.88</ele>
        <time>2018-08-07T09:27:02Z</time>
      </trkpt>
      <trkpt lat="45.11021" lon="4.57633">
        <ele>951.36</ele>
        <time>2018-08-07T09:27:24Z</time>
      </trkpt>
      <trkpt lat="45.11015" lon="4.57635">
        <ele>952.8</ele>
        <time>2018-08-07T09:27:46Z</time>
      </trkpt>
      <trkpt lat="45.11009" lon="4.57637">
        <ele>955.21</ele>
        <time>2018-08-07T09:28:10Z</time>
      </trkpt>
      <trkpt lat="45.11001" lon="4.57639">
        <ele>956.65</ele>
        <time>2018-08-07T09:28:28Z</time>
      </trkpt>
      <trkpt lat="45.10991" lon="4.57639">
        <ele>959.05</ele>
        <time>2018-08-07T09:28:47Z</time>
      </trkpt>
      <trkpt lat="45.10977" lon="4.57626">
        <ele>961.46</ele>
        <time>2018-08-07T09:29:06Z</time>
      </trkpt>
      <trkpt lat="45.1097" lon="4.57618">
        <ele>963.86</ele>
        <time>2018-08-07T09:29:29Z</time>
      </trkpt>
      <trkpt lat="45.10971" lon="4.57614">
        <ele>965.3</ele>
        <time>2018-08-07T09:29:51Z</time>
      </trkpt>
      <trkpt lat="45.10982" lon="4.57613">
        <ele>962.9</ele>
        <time>2018-08-07T09:30:11Z</time>
      </trkpt>
      <trkpt lat="45.10984" lon="4.57613">
        <ele>962.9</ele>
        <time>2018-08-07T09:30:29Z</time>
      </trkpt>
      <trkpt lat="45.10987" lon="4.57606">
        <ele>961.46</ele>
        <time>2018-08-07T09:30:46Z</time>
      </trkpt>
      <trkpt lat="45.10991" lon="4.57599">
        <ele>960.49</ele>
        <time>2018-08-07T09:31:04Z</time>
      </trkpt>
      <trkpt lat="45.10996" lon="4.57607">
        <ele>959.53</ele>
        <time>2018-08-07T09:31:23Z</time>
      </trkpt>
      <trkpt lat="45.10995" lon="4.57609">
        <ele>960.98</ele>
        <time>2018-08-07T09:31:28Z</time>
      </trkpt>
      <trkpt lat="45.10992" lon="4.5762">
        <ele>961.46</ele>
        <time>2018-08-07T09:31:44Z</time>
      </trkpt>
      <trkpt lat="45.10994" lon="4.57627">
        <ele>959.05</ele>
        <time>2018-08-07T09:32:00Z</time>
      </trkpt>
      <trkpt lat="45.11007" lon="4.57621">
        <ele>957.61</ele>
        <time>2018-08-07T09:32:22Z</time>
      </trkpt>
      <trkpt lat="45.11016" lon="4.57633">
        <ele>955.69</ele>
        <time>2018-08-07T09:32:37Z</time>
      </trkpt>
      <trkpt lat="45.11019" lon="4.57646">
        <ele>954.73</ele>
        <time>2018-08-07T09:32:52Z</time>
      </trkpt>
      <trkpt lat="45.11022" lon="4.57649">
        <ele>954.73</ele>
        <time>2018-08-07T09:33:15Z</time>
      </trkpt>
      <trkpt lat="45.11021" lon="4.57654">
        <ele>956.17</ele>
        <time>2018-08-07T09:33:33Z</time>
      </trkpt>
      <trkpt lat="45.11018" lon="4.57659">
        <ele>955.21</ele>
        <time>2018-08-07T09:33:51Z</time>
      </trkpt>
      <trkpt lat="45.11012" lon="4.57667">
        <ele>955.21</ele>
        <time>2018-08-07T09:34:27Z</time>
      </trkpt>
      <trkpt lat="45.11019" lon="4.57666">
        <ele>955.21</ele>
        <time>2018-08-07T09:34:40Z</time>
      </trkpt>
      <trkpt lat="45.1102" lon="4.57675">
        <ele>953.77</ele>
        <time>2018-08-07T09:34:56Z</time>
      </trkpt>
      <trkpt lat="45.1102" lon="4.5769">
        <ele>952.32</ele>
        <time>2018-08-07T09:35:14Z</time>
      </trkpt>
      <trkpt lat="45.1102" lon="4.57703">
        <ele>951.36</ele>
        <time>2018-08-07T09:35:34Z</time>
      </trkpt>
      <trkpt lat="45.11017" lon="4.57712">
        <ele>950.4</ele>
        <time>2018-08-07T09:35:52Z</time>
      </trkpt>
      <trkpt lat="45.11014" lon="4.57713">
        <ele>951.36</ele>
        <time>2018-08-07T09:36:21Z</time>
      </trkpt>
      <trkpt lat="45.11015" lon="4.57712">
        <ele>950.88</ele>
        <time>2018-08-07T09:36:52Z</time>
      </trkpt>
      <trkpt lat="45.11002" lon="4.57712">
        <ele>951.84</ele>
        <time>2018-08-07T09:37:19Z</time>
      </trkpt>
      <trkpt lat="45.11006" lon="4.57713">
        <ele>952.32</ele>
        <time>2018-08-07T09:37:50Z</time>
      </trkpt>
      <trkpt lat="45.11009" lon="4.57711">
        <ele>952.8</ele>
        <time>2018-08-07T09:38:16Z</time>
      </trkpt>
      <trkpt lat="45.11008" lon="4.57711">
        <ele>953.77</ele>
        <time>2018-08-07T09:38:43Z</time>
      </trkpt>
      <trkpt lat="45.1101" lon="4.57721">
        <ele>952.32</ele>
        <time>2018-08-07T09:39:13Z</time>
      </trkpt>
      <trkpt lat="45.11008" lon="4.57711">
        <ele>951.84</ele>
        <time>2018-08-07T09:39:36Z</time>
      </trkpt>
      <trkpt lat="45.11011" lon="4.57715">
        <ele>953.28</ele>
        <time>2018-08-07T09:40:05Z</time>
      </trkpt>
      <trkpt lat="45.11014" lon="4.57731">
        <ele>951.36</ele>
        <time>2018-08-07T09:40:24Z</time>
      </trkpt>
      <trkpt lat="45.11014" lon="4.57743">
        <ele>952.8</ele>
        <time>2018-08-07T09:40:49Z</time>
      </trkpt>
      <trkpt lat="45.11014" lon="4.5775">
        <ele>951.36</ele>
        <time>2018-08-07T09:41:09Z</time>
      </trkpt>
      <trkpt lat="45.11011" lon="4.57756">
        <ele>951.36</ele>
        <time>2018-08-07T09:41:28Z</time>
      </trkpt>
      <trkpt lat="45.11012" lon="4.57764">
        <ele>951.84</ele>
        <time>2018-08-07T09:41:44Z</time>
      </trkpt>
      <trkpt lat="45.11013" lon="4.57775">
        <ele>949.92</ele>
        <time>2018-08-07T09:41:59Z</time>
      </trkpt>
      <trkpt lat="45.11011" lon="4.57793">
        <ele>948.48</ele>
        <time>2018-08-07T09:42:14Z</time>
      </trkpt>
      <trkpt lat="45.11011" lon="4.57796">
        <ele>947.04</ele>
        <time>2018-08-07T09:42:30Z</time>
      </trkpt>
      <trkpt lat="45.11011" lon="4.57796">
        <ele>946.56</ele>
        <time>2018-08-07T09:42:54Z</time>
      </trkpt>
      <trkpt lat="45.11011" lon="4.57789">
        <ele>947.04</ele>
        <time>2018-08-07T09:43:25Z</time>
      </trkpt>
      <trkpt lat="45.11011" lon="4.57795">
        <ele>948.48</ele>
        <time>2018-08-07T09:43:43Z</time>
      </trkpt>
      <trkpt lat="45.11011" lon="4.57803">
        <ele>947.52</ele>
        <time>2018-08-07T09:44:04Z</time>
      </trkpt>
      <trkpt lat="45.11006" lon="4.57804">
        <ele>948.48</ele>
        <time>2018-08-07T09:44:35Z</time>
      </trkpt>
      <trkpt lat="45.11007" lon="4.57813">
        <ele>948</ele>
        <time>2018-08-07T09:45:02Z</time>
      </trkpt>
      <trkpt lat="45.1101" lon="4.57815">
        <ele>948</ele>
        <time>2018-08-07T09:45:24Z</time>
      </trkpt>
      <trkpt lat="45.11008" lon="4.5782">
        <ele>946.56</ele>
        <time>2018-08-07T09:45:51Z</time>
      </trkpt>
      <trkpt lat="45.11009" lon="4.57827">
        <ele>946.07</ele>
        <time>2018-08-07T09:46:07Z</time>
      </trkpt>
      <trkpt lat="45.11012" lon="4.57834">
        <ele>946.07</ele>
        <time>2018-08-07T09:46:26Z</time>
      </trkpt>
      <trkpt lat="45.11009" lon="4.57835">
        <ele>945.59</ele>
        <time>2018-08-07T09:46:45Z</time>
      </trkpt>
      <trkpt lat="45.11005" lon="4.57843">
        <ele>945.11</ele>
        <time>2018-08-07T09:47:22Z</time>
      </trkpt>
      <trkpt lat="45.11005" lon="4.57853">
        <ele>944.15</ele>
        <time>2018-08-07T09:47:41Z</time>
      </trkpt>
      <trkpt lat="45.11001" lon="4.57865">
        <ele>942.71</ele>
        <time>2018-08-07T09:47:56Z</time>
      </trkpt>
      <trkpt lat="45.11001" lon="4.57869">
        <ele>942.71</ele>
        <time>2018-08-07T09:47:59Z</time>
      </trkpt>
      <trkpt lat="45.11003" lon="4.57882">
        <ele>941.75</ele>
        <time>2018-08-07T09:48:14Z</time>
      </trkpt>
      <trkpt lat="45.11006" lon="4.57891">
        <ele>940.79</ele>
        <time>2018-08-07T09:48:31Z</time>
      </trkpt>
      <trkpt lat="45.11011" lon="4.57897">
        <ele>939.83</ele>
        <time>2018-08-07T09:48:43Z</time>
      </trkpt>
      <trkpt lat="45.1101" lon="4.57902">
        <ele>939.83</ele>
        <time>2018-08-07T09:49:06Z</time>
      </trkpt>
      <trkpt lat="45.11011" lon="4.57905">
        <ele>939.83</ele>
        <time>2018-08-07T09:49:22Z</time>
      </trkpt>
      <trkpt lat="45.11009" lon="4.57912">
        <ele>939.35</ele>
        <time>2018-08-07T09:49:37Z</time>
      </trkpt>
      <trkpt lat="45.1101" lon="4.5792">
        <ele>937.9</ele>
        <time>2018-08-07T09:49:53Z</time>
      </trkpt>
      <trkpt lat="45.11009" lon="4.57924">
        <ele>938.38</ele>
        <time>2018-08-07T09:50:22Z</time>
      </trkpt>
      <trkpt lat="45.11011" lon="4.57921">
        <ele>938.38</ele>
        <time>2018-08-07T09:50:57Z</time>
      </trkpt>
      <trkpt lat="45.11012" lon="4.5791">
        <ele>938.38</ele>
        <time>2018-08-07T09:51:23Z</time>
      </trkpt>
      <trkpt lat="45.11016" lon="4.57912">
        <ele>938.38</ele>
        <time>2018-08-07T09:51:44Z</time>
      </trkpt>
      <trkpt lat="45.11016" lon="4.57919">
        <ele>938.86</ele>
        <time>2018-08-07T09:52:11Z</time>
      </trkpt>
      <trkpt lat="45.11015" lon="4.57921">
        <ele>937.9</ele>
        <time>2018-08-07T09:52:38Z</time>
      </trkpt>
      <trkpt lat="45.11019" lon="4.57919">
        <ele>937.9</ele>
        <time>2018-08-07T09:52:49Z</time>
      </trkpt>
      <trkpt lat="45.11021" lon="4.57916">
        <ele>938.86</ele>
        <time>2018-08-07T09:53:00Z</time>
      </trkpt>
      <trkpt lat="45.1102" lon="4.57917">
        <ele>939.35</ele>
        <time>2018-08-07T09:53:28Z</time>
      </trkpt>
      <trkpt lat="45.11024" lon="4.57914">
        <ele>939.83</ele>
        <time>2018-08-07T09:54:01Z</time>
      </trkpt>
      <trkpt lat="45.11023" lon="4.57912">
        <ele>938.86</ele>
        <time>2018-08-07T09:54:21Z</time>
      </trkpt>
      <trkpt lat="45.11022" lon="4.57913">
        <ele>939.35</ele>
        <time>2018-08-07T09:54:50Z</time>
      </trkpt>
      <trkpt lat="45.11022" lon="4.57911">
        <ele>940.79</ele>
        <time>2018-08-07T09:55:26Z</time>
      </trkpt>
      <trkpt lat="45.1102" lon="4.57912">
        <ele>939.35</ele>
        <time>2018-08-07T09:55:48Z</time>
      </trkpt>
      <trkpt lat="45.1102" lon="4.57912">
        <ele>939.83</ele>
        <time>2018-08-07T09:56:19Z</time>
      </trkpt>
      <trkpt lat="45.11018" lon="4.57915">
        <ele>941.27</ele>
        <time>2018-08-07T09:56:29Z</time>
      </trkpt>
      <trkpt lat="45.1102" lon="4.57918">
        <ele>941.75</ele>
        <time>2018-08-07T09:57:00Z</time>
      </trkpt>
      <trkpt lat="45.11021" lon="4.57925">
        <ele>940.31</ele>
        <time>2018-08-07T09:57:19Z</time>
      </trkpt>
      <trkpt lat="45.11023" lon="4.57928">
        <ele>939.35</ele>
        <time>2018-08-07T09:57:46Z</time>
      </trkpt>
      <trkpt lat="45.11028" lon="4.57929">
        <ele>937.9</ele>
        <time>2018-08-07T09:58:11Z</time>
      </trkpt>
      <trkpt lat="45.11027" lon="4.57933">
        <ele>937.9</ele>
        <time>2018-08-07T09:58:40Z</time>
      </trkpt>
      <trkpt lat="45.11028" lon="4.5793">
        <ele>937.42</ele>
        <time>2018-08-07T09:59:07Z</time>
      </trkpt>
      <trkpt lat="45.11027" lon="4.57929">
        <ele>938.86</ele>
        <time>2018-08-07T09:59:19Z</time>
      </trkpt>
      <trkpt lat="45.11027" lon="4.57929">
        <ele>937.42</ele>
        <time>2018-08-07T09:59:21Z</time>
      </trkpt>
      <trkpt lat="45.11024" lon="4.57932">
        <ele>938.38</ele>
        <time>2018-08-07T09:59:46Z</time>
      </trkpt>
      <trkpt lat="45.11024" lon="4.57932">
        <ele>938.38</ele>
        <time>2018-08-07T09:59:47Z</time>
      </trkpt>
      <trkpt lat="45.11024" lon="4.57933">
        <ele>937.42</ele>
        <time>2018-08-07T09:59:52Z</time>
      </trkpt>
      <trkpt lat="45.11024" lon="4.57934">
        <ele>937.42</ele>
        <time>2018-08-07T10:00:09Z</time>
      </trkpt>
      <trkpt lat="45.11023" lon="4.57938">
        <ele>938.86</ele>
        <time>2018-08-07T10:00:38Z</time>
      </trkpt>
      <trkpt lat="45.11023" lon="4.57938">
        <ele>937.42</ele>
        <time>2018-08-07T10:00:43Z</time>
      </trkpt>
      <trkpt lat="45.1102" lon="4.57937">
        <ele>938.86</ele>
        <time>2018-08-07T10:01:27Z</time>
      </trkpt>
      <trkpt lat="45.11023" lon="4.57939">
        <ele>937.42</ele>
        <time>2018-08-07T10:01:59Z</time>
      </trkpt>
      <trkpt lat="45.11027" lon="4.57941">
        <ele>937.42</ele>
        <time>2018-08-07T10:02:40Z</time>
      </trkpt>
      <trkpt lat="45.11024" lon="4.57939">
        <ele>937.9</ele>
        <time>2018-08-07T10:03:16Z</time>
      </trkpt>
      <trkpt lat="45.11024" lon="4.57938">
        <ele>938.86</ele>
        <time>2018-08-07T10:03:39Z</time>
      </trkpt>
      <trkpt lat="45.11022" lon="4.57938">
        <ele>938.38</ele>
        <time>2018-08-07T10:04:20Z</time>
      </trkpt>
      <trkpt lat="45.11024" lon="4.57938">
        <ele>939.35</ele>
        <time>2018-08-07T10:04:30Z</time>
      </trkpt>
      <trkpt lat="45.11025" lon="4.57936">
        <ele>939.83</ele>
        <time>2018-08-07T10:05:07Z</time>
      </trkpt>
      <trkpt lat="45.11026" lon="4.57934">
        <ele>939.83</ele>
        <time>2018-08-07T10:05:44Z</time>
      </trkpt>
      <trkpt lat="45.11025" lon="4.57934">
        <ele>938.38</ele>
        <time>2018-08-07T10:05:56Z</time>
      </trkpt>
      <trkpt lat="45.11023" lon="4.57938">
        <ele>938.86</ele>
        <time>2018-08-07T10:06:35Z</time>
      </trkpt>
      <trkpt lat="45.11028" lon="4.57935">
        <ele>939.83</ele>
        <time>2018-08-07T10:07:20Z</time>
      </trkpt>
      <trkpt lat="45.11028" lon="4.57936">
        <ele>940.31</ele>
        <time>2018-08-07T10:07:55Z</time>
      </trkpt>
      <trkpt lat="45.11028" lon="4.57933">
        <ele>940.31</ele>
        <time>2018-08-07T10:08:35Z</time>
      </trkpt>
      <trkpt lat="45.11028" lon="4.57934">
        <ele>938.86</ele>
        <time>2018-08-07T10:09:10Z</time>
      </trkpt>
      <trkpt lat="45.11027" lon="4.57937">
        <ele>939.35</ele>
        <time>2018-08-07T10:09:47Z</time>
      </trkpt>
      <trkpt lat="45.11028" lon="4.57937">
        <ele>940.31</ele>
        <time>2018-08-07T10:09:49Z</time>
      </trkpt>
      <trkpt lat="45.11027" lon="4.57936">
        <ele>941.27</ele>
        <time>2018-08-07T10:10:23Z</time>
      </trkpt>
      <trkpt lat="45.11024" lon="4.57936">
        <ele>941.27</ele>
        <time>2018-08-07T10:10:58Z</time>
      </trkpt>
      <trkpt lat="45.11026" lon="4.57938">
        <ele>941.75</ele>
        <time>2018-08-07T10:11:43Z</time>
      </trkpt>
      <trkpt lat="45.11025" lon="4.57938">
        <ele>940.79</ele>
        <time>2018-08-07T10:12:26Z</time>
      </trkpt>
      <trkpt lat="45.11025" lon="4.5794">
        <ele>940.79</ele>
        <time>2018-08-07T10:13:05Z</time>
      </trkpt>
      <trkpt lat="45.11021" lon="4.57939">
        <ele>941.27</ele>
        <time>2018-08-07T10:13:52Z</time>
      </trkpt>
      <trkpt lat="45.11021" lon="4.57935">
        <ele>942.71</ele>
        <time>2018-08-07T10:14:39Z</time>
      </trkpt>
      <trkpt lat="45.11022" lon="4.57934">
        <ele>942.71</ele>
        <time>2018-08-07T10:15:24Z</time>
      </trkpt>
      <trkpt lat="45.11023" lon="4.57933">
        <ele>942.71</ele>
        <time>2018-08-07T10:15:59Z</time>
      </trkpt>
      <trkpt lat="45.11024" lon="4.57936">
        <ele>942.71</ele>
        <time>2018-08-07T10:16:38Z</time>
      </trkpt>
      <trkpt lat="45.11026" lon="4.57937">
        <ele>941.75</ele>
        <time>2018-08-07T10:17:31Z</time>
      </trkpt>
      <trkpt lat="45.11021" lon="4.57937">
        <ele>941.75</ele>
        <time>2018-08-07T10:18:12Z</time>
      </trkpt>
      <trkpt lat="45.11022" lon="4.57936">
        <ele>942.23</ele>
        <time>2018-08-07T10:18:51Z</time>
      </trkpt>
      <trkpt lat="45.11024" lon="4.57937">
        <ele>942.23</ele>
        <time>2018-08-07T10:19:36Z</time>
      </trkpt>
      <trkpt lat="45.11022" lon="4.57938">
        <ele>942.23</ele>
        <time>2018-08-07T10:20:14Z</time>
      </trkpt>
      <trkpt lat="45.11025" lon="4.57934">
        <ele>943.67</ele>
        <time>2018-08-07T10:20:53Z</time>
      </trkpt>
      <trkpt lat="45.11026" lon="4.57935">
        <ele>942.23</ele>
        <time>2018-08-07T10:21:28Z</time>
      </trkpt>
      <trkpt lat="45.11024" lon="4.57938">
        <ele>942.23</ele>
        <time>2018-08-07T10:22:01Z</time>
      </trkpt>
      <trkpt lat="45.11023" lon="4.57937">
        <ele>942.23</ele>
        <time>2018-08-07T10:22:41Z</time>
      </trkpt>
      <trkpt lat="45.11025" lon="4.57937">
        <ele>943.67</ele>
        <time>2018-08-07T10:23:13Z</time>
      </trkpt>
      <trkpt lat="45.11025" lon="4.57935">
        <ele>943.67</ele>
        <time>2018-08-07T10:23:51Z</time>
      </trkpt>
      <trkpt lat="45.11025" lon="4.57935">
        <ele>943.67</ele>
        <time>2018-08-07T10:24:27Z</time>
      </trkpt>
      <trkpt lat="45.11023" lon="4.57935">
        <ele>943.67</ele>
        <time>2018-08-07T10:25:05Z</time>
      </trkpt>
      <trkpt lat="45.11025" lon="4.57934">
        <ele>944.15</ele>
        <time>2018-08-07T10:25:42Z</time>
      </trkpt>
      <trkpt lat="45.11024" lon="4.57937">
        <ele>944.15</ele>
        <time>2018-08-07T10:26:25Z</time>
      </trkpt>
      <trkpt lat="45.11022" lon="4.57935">
        <ele>944.63</ele>
        <time>2018-08-07T10:27:04Z</time>
      </trkpt>
      <trkpt lat="45.1102" lon="4.57936">
        <ele>943.19</ele>
        <time>2018-08-07T10:27:50Z</time>
      </trkpt>
      <trkpt lat="45.1102" lon="4.5794">
        <ele>944.63</ele>
        <time>2018-08-07T10:28:22Z</time>
      </trkpt>
      <trkpt lat="45.11021" lon="4.57937">
        <ele>944.63</ele>
        <time>2018-08-07T10:28:51Z</time>
      </trkpt>
      <trkpt lat="45.11023" lon="4.57934">
        <ele>945.11</ele>
        <time>2018-08-07T10:29:20Z</time>
      </trkpt>
      <trkpt lat="45.11023" lon="4.57936">
        <ele>944.15</ele>
        <time>2018-08-07T10:29:50Z</time>
      </trkpt>
      <trkpt lat="45.11023" lon="4.57936">
        <ele>943.67</ele>
        <time>2018-08-07T10:30:18Z</time>
      </trkpt>
      <trkpt lat="45.1102" lon="4.57934">
        <ele>943.67</ele>
        <time>2018-08-07T10:30:45Z</time>
      </trkpt>
      <trkpt lat="45.1102" lon="4.57938">
        <ele>943.67</ele>
        <time>2018-08-07T10:31:10Z</time>
      </trkpt>
      <trkpt lat="45.11019" lon="4.57941">
        <ele>943.67</ele>
        <time>2018-08-07T10:31:38Z</time>
      </trkpt>
      <trkpt lat="45.11021" lon="4.57937">
        <ele>945.11</ele>
        <time>2018-08-07T10:32:12Z</time>
      </trkpt>
      <trkpt lat="45.11021" lon="4.57934">
        <ele>943.67</ele>
        <time>2018-08-07T10:32:29Z</time>
      </trkpt>
      <trkpt lat="45.11021" lon="4.57935">
        <ele>944.63</ele>
        <time>2018-08-07T10:32:59Z</time>
      </trkpt>
      <trkpt lat="45.11021" lon="4.57936">
        <ele>944.63</ele>
        <time>2018-08-07T10:33:00Z</time>
      </trkpt>
      <trkpt lat="45.11021" lon="4.57934">
        <ele>945.11</ele>
        <time>2018-08-07T10:33:35Z</time>
      </trkpt>
      <trkpt lat="45.11018" lon="4.57936">
        <ele>945.11</ele>
        <time>2018-08-07T10:34:13Z</time>
      </trkpt>
      <trkpt lat="45.11018" lon="4.57936">
        <ele>946.07</ele>
        <time>2018-08-07T10:34:51Z</time>
      </trkpt>
      <trkpt lat="45.11019" lon="4.5794">
        <ele>946.07</ele>
        <time>2018-08-07T10:35:26Z</time>
      </trkpt>
      <trkpt lat="45.11017" lon="4.57933">
        <ele>946.56</ele>
        <time>2018-08-07T10:35:56Z</time>
      </trkpt>
      <trkpt lat="45.11018" lon="4.57934">
        <ele>946.56</ele>
        <time>2018-08-07T10:36:33Z</time>
      </trkpt>
      <trkpt lat="45.1102" lon="4.5793">
        <ele>946.56</ele>
        <time>2018-08-07T10:37:07Z</time>
      </trkpt>
      <trkpt lat="45.1102" lon="4.57931">
        <ele>945.11</ele>
        <time>2018-08-07T10:37:09Z</time>
      </trkpt>
      <trkpt lat="45.11021" lon="4.57932">
        <ele>945.11</ele>
        <time>2018-08-07T10:37:43Z</time>
      </trkpt>
      <trkpt lat="45.11019" lon="4.57936">
        <ele>945.11</ele>
        <time>2018-08-07T10:38:21Z</time>
      </trkpt>
      <trkpt lat="45.11018" lon="4.5794">
        <ele>946.07</ele>
        <time>2018-08-07T10:38:57Z</time>
      </trkpt>
      <trkpt lat="45.11019" lon="4.57938">
        <ele>946.56</ele>
        <time>2018-08-07T10:39:28Z</time>
      </trkpt>
      <trkpt lat="45.11021" lon="4.5794">
        <ele>945.59</ele>
        <time>2018-08-07T10:39:56Z</time>
      </trkpt>
      <trkpt lat="45.1102" lon="4.57937">
        <ele>945.11</ele>
        <time>2018-08-07T10:40:29Z</time>
      </trkpt>
      <trkpt lat="45.11019" lon="4.57935">
        <ele>946.56</ele>
        <time>2018-08-07T10:41:02Z</time>
      </trkpt>
      <trkpt lat="45.1102" lon="4.57935">
        <ele>945.11</ele>
        <time>2018-08-07T10:41:42Z</time>
      </trkpt>
      <trkpt lat="45.1102" lon="4.57934">
        <ele>945.11</ele>
        <time>2018-08-07T10:42:23Z</time>
      </trkpt>
      <trkpt lat="45.11019" lon="4.57935">
        <ele>945.11</ele>
        <time>2018-08-07T10:42:56Z</time>
      </trkpt>
      <trkpt lat="45.11019" lon="4.57936">
        <ele>945.11</ele>
        <time>2018-08-07T10:43:35Z</time>
      </trkpt>
      <trkpt lat="45.11017" lon="4.57938">
        <ele>945.11</ele>
        <time>2018-08-07T10:44:15Z</time>
      </trkpt>
      <trkpt lat="45.11021" lon="4.5793">
        <ele>945.11</ele>
        <time>2018-08-07T10:44:59Z</time>
      </trkpt>
      <trkpt lat="45.11022" lon="4.57932">
        <ele>944.63</ele>
        <time>2018-08-07T10:45:44Z</time>
      </trkpt>
      <trkpt lat="45.11015" lon="4.57929">
        <ele>944.63</ele>
        <time>2018-08-07T10:46:23Z</time>
      </trkpt>
      <trkpt lat="45.11018" lon="4.57933">
        <ele>944.63</ele>
        <time>2018-08-07T10:47:00Z</time>
      </trkpt>
      <trkpt lat="45.11019" lon="4.57937">
        <ele>944.63</ele>
        <time>2018-08-07T10:47:33Z</time>
      </trkpt>
      <trkpt lat="45.11025" lon="4.57935">
        <ele>945.11</ele>
        <time>2018-08-07T10:48:13Z</time>
      </trkpt>
      <trkpt lat="45.11021" lon="4.57935">
        <ele>945.11</ele>
        <time>2018-08-07T10:48:50Z</time>
      </trkpt>
      <trkpt lat="45.11022" lon="4.5793">
        <ele>946.07</ele>
        <time>2018-08-07T10:49:17Z</time>
      </trkpt>
      <trkpt lat="45.11019" lon="4.57931">
        <ele>946.56</ele>
        <time>2018-08-07T10:49:47Z</time>
      </trkpt>
      <trkpt lat="45.11019" lon="4.57932">
        <ele>945.11</ele>
        <time>2018-08-07T10:50:23Z</time>
      </trkpt>
      <trkpt lat="45.1102" lon="4.57933">
        <ele>945.59</ele>
        <time>2018-08-07T10:50:53Z</time>
      </trkpt>
      <trkpt lat="45.11022" lon="4.57932">
        <ele>946.56</ele>
        <time>2018-08-07T10:51:28Z</time>
      </trkpt>
      <trkpt lat="45.11018" lon="4.57931">
        <ele>947.04</ele>
        <time>2018-08-07T10:51:57Z</time>
      </trkpt>
      <trkpt lat="45.1102" lon="4.57932">
        <ele>947.52</ele>
        <time>2018-08-07T10:52:31Z</time>
      </trkpt>
      <trkpt lat="45.11018" lon="4.57927">
        <ele>947.04</ele>
        <time>2018-08-07T10:53:13Z</time>
      </trkpt>
      <trkpt lat="45.11019" lon="4.57929">
        <ele>945.59</ele>
        <time>2018-08-07T10:53:45Z</time>
      </trkpt>
      <trkpt lat="45.1102" lon="4.57932">
        <ele>944.63</ele>
        <time>2018-08-07T10:54:26Z</time>
      </trkpt>
      <trkpt lat="45.11019" lon="4.57935">
        <ele>945.59</ele>
        <time>2018-08-07T10:54:57Z</time>
      </trkpt>
      <trkpt lat="45.11019" lon="4.57935">
        <ele>947.04</ele>
        <time>2018-08-07T10:54:59Z</time>
      </trkpt>
      <trkpt lat="45.11019" lon="4.57935">
        <ele>945.59</ele>
        <time>2018-08-07T10:55:02Z</time>
      </trkpt>
      <trkpt lat="45.1102" lon="4.57935">
        <ele>945.11</ele>
        <time>2018-08-07T10:55:35Z</time>
      </trkpt>
      <trkpt lat="45.1102" lon="4.57932">
        <ele>945.11</ele>
        <time>2018-08-07T10:56:13Z</time>
      </trkpt>
      <trkpt lat="45.11019" lon="4.57933">
        <ele>946.56</ele>
        <time>2018-08-07T10:56:48Z</time>
      </trkpt>
      <trkpt lat="45.11021" lon="4.57932">
        <ele>947.04</ele>
        <time>2018-08-07T10:57:07Z</time>
      </trkpt>
      <trkpt lat="45.11023" lon="4.57932">
        <ele>948.48</ele>
        <time>2018-08-07T10:57:28Z</time>
      </trkpt>
      <trkpt lat="45.11022" lon="4.57933">
        <ele>948</ele>
        <time>2018-08-07T10:57:52Z</time>
      </trkpt>
      <trkpt lat="45.11021" lon="4.57936">
        <ele>948</ele>
        <time>2018-08-07T10:58:10Z</time>
      </trkpt>
      <trkpt lat="45.11022" lon="4.57937">
        <ele>946.56</ele>
        <time>2018-08-07T10:58:45Z</time>
      </trkpt>
      <trkpt lat="45.1102" lon="4.57936">
        <ele>947.04</ele>
        <time>2018-08-07T10:59:18Z</time>
      </trkpt>
      <trkpt lat="45.1102" lon="4.57937">
        <ele>947.52</ele>
        <time>2018-08-07T10:59:45Z</time>
      </trkpt>
      <trkpt lat="45.11019" lon="4.57935">
        <ele>946.56</ele>
        <time>2018-08-07T11:00:12Z</time>
      </trkpt>
      <trkpt lat="45.11018" lon="4.57935">
        <ele>947.52</ele>
        <time>2018-08-07T11:00:14Z</time>
      </trkpt>
      <trkpt lat="45.11014" lon="4.57927">
        <ele>949.44</ele>
        <time>2018-08-07T11:00:32Z</time>
      </trkpt>
      <trkpt lat="45.11012" lon="4.57921">
        <ele>950.88</ele>
        <time>2018-08-07T11:00:53Z</time>
      </trkpt>
      <trkpt lat="45.11008" lon="4.5791">
        <ele>952.32</ele>
        <time>2018-08-07T11:01:09Z</time>
      </trkpt>
      <trkpt lat="45.11" lon="4.57904">
        <ele>953.77</ele>
        <time>2018-08-07T11:01:25Z</time>
      </trkpt>
      <trkpt lat="45.10995" lon="4.57897">
        <ele>956.17</ele>
        <time>2018-08-07T11:01:41Z</time>
      </trkpt>
      <trkpt lat="45.10993" lon="4.57882">
        <ele>956.65</ele>
        <time>2018-08-07T11:02:00Z</time>
      </trkpt>
      <trkpt lat="45.10995" lon="4.57867">
        <ele>957.13</ele>
        <time>2018-08-07T11:02:15Z</time>
      </trkpt>
      <trkpt lat="45.10999" lon="4.57847">
        <ele>958.57</ele>
        <time>2018-08-07T11:02:36Z</time>
      </trkpt>
      <trkpt lat="45.11" lon="4.57833">
        <ele>960.01</ele>
        <time>2018-08-07T11:02:51Z</time>
      </trkpt>
      <trkpt lat="45.11002" lon="4.57817">
        <ele>962.42</ele>
        <time>2018-08-07T11:03:12Z</time>
      </trkpt>
      <trkpt lat="45.11007" lon="4.57798">
        <ele>963.86</ele>
        <time>2018-08-07T11:03:33Z</time>
      </trkpt>
      <trkpt lat="45.11007" lon="4.57796">
        <ele>963.38</ele>
        <time>2018-08-07T11:04:09Z</time>
      </trkpt>
      <trkpt lat="45.11008" lon="4.57795">
        <ele>963.38</ele>
        <time>2018-08-07T11:04:41Z</time>
      </trkpt>
      <trkpt lat="45.11011" lon="4.57801">
        <ele>963.38</ele>
        <time>2018-08-07T11:05:14Z</time>
      </trkpt>
      <trkpt lat="45.11012" lon="4.57796">
        <ele>963.86</ele>
        <time>2018-08-07T11:05:41Z</time>
      </trkpt>
      <trkpt lat="45.11009" lon="4.57787">
        <ele>964.34</ele>
        <time>2018-08-07T11:05:59Z</time>
      </trkpt>
      <trkpt lat="45.1101" lon="4.57777">
        <ele>964.82</ele>
        <time>2018-08-07T11:06:26Z</time>
      </trkpt>
      <trkpt lat="45.11014" lon="4.57775">
        <ele>964.82</ele>
        <time>2018-08-07T11:06:58Z</time>
      </trkpt>
      <trkpt lat="45.11011" lon="4.57778">
        <ele>964.82</ele>
        <time>2018-08-07T11:07:22Z</time>
      </trkpt>
      <trkpt lat="45.11007" lon="4.57777">
        <ele>965.3</ele>
        <time>2018-08-07T11:07:47Z</time>
      </trkpt>
      <trkpt lat="45.11008" lon="4.57776">
        <ele>964.34</ele>
        <time>2018-08-07T11:07:55Z</time>
      </trkpt>
      <trkpt lat="45.11008" lon="4.57776">
        <ele>966.74</ele>
        <time>2018-08-07T11:07:57Z</time>
      </trkpt>
      <trkpt lat="45.11013" lon="4.57774">
        <ele>964.82</ele>
        <time>2018-08-07T11:08:18Z</time>
      </trkpt>
      <trkpt lat="45.11014" lon="4.57772">
        <ele>965.78</ele>
        <time>2018-08-07T11:08:39Z</time>
      </trkpt>
      <trkpt lat="45.11011" lon="4.57777">
        <ele>965.78</ele>
        <time>2018-08-07T11:09:03Z</time>
      </trkpt>
      <trkpt lat="45.11007" lon="4.57778">
        <ele>968.18</ele>
        <time>2018-08-07T11:09:24Z</time>
      </trkpt>
      <trkpt lat="45.11009" lon="4.57778">
        <ele>966.74</ele>
        <time>2018-08-07T11:09:38Z</time>
      </trkpt>
      <trkpt lat="45.1101" lon="4.57775">
        <ele>965.78</ele>
        <time>2018-08-07T11:10:00Z</time>
      </trkpt>
      <trkpt lat="45.11013" lon="4.57774">
        <ele>966.74</ele>
        <time>2018-08-07T11:10:21Z</time>
      </trkpt>
      <trkpt lat="45.11012" lon="4.5777">
        <ele>966.74</ele>
        <time>2018-08-07T11:10:52Z</time>
      </trkpt>
      <trkpt lat="45.1101" lon="4.5777">
        <ele>965.3</ele>
        <time>2018-08-07T11:11:15Z</time>
      </trkpt>
      <trkpt lat="45.11005" lon="4.5777">
        <ele>965.78</ele>
        <time>2018-08-07T11:11:36Z</time>
      </trkpt>
      <trkpt lat="45.11005" lon="4.5777">
        <ele>967.22</ele>
        <time>2018-08-07T11:11:46Z</time>
      </trkpt>
      <trkpt lat="45.1101" lon="4.57772">
        <ele>965.78</ele>
        <time>2018-08-07T11:12:06Z</time>
      </trkpt>
      <trkpt lat="45.1101" lon="4.57763">
        <ele>966.74</ele>
        <time>2018-08-07T11:12:32Z</time>
      </trkpt>
      <trkpt lat="45.11008" lon="4.57759">
        <ele>966.74</ele>
        <time>2018-08-07T11:12:44Z</time>
      </trkpt>
      <trkpt lat="45.11008" lon="4.57748">
        <ele>967.7</ele>
        <time>2018-08-07T11:13:00Z</time>
      </trkpt>
      <trkpt lat="45.11008" lon="4.57736">
        <ele>969.15</ele>
        <time>2018-08-07T11:13:17Z</time>
      </trkpt>
      <trkpt lat="45.11007" lon="4.57722">
        <ele>971.07</ele>
        <time>2018-08-07T11:13:35Z</time>
      </trkpt>
      <trkpt lat="45.11009" lon="4.5771">
        <ele>971.55</ele>
        <time>2018-08-07T11:14:02Z</time>
      </trkpt>
      <trkpt lat="45.11006" lon="4.57695">
        <ele>972.51</ele>
        <time>2018-08-07T11:14:26Z</time>
      </trkpt>
      <trkpt lat="45.11006" lon="4.5768">
        <ele>974.43</ele>
        <time>2018-08-07T11:14:50Z</time>
      </trkpt>
      <trkpt lat="45.11009" lon="4.57664">
        <ele>975.39</ele>
        <time>2018-08-07T11:15:08Z</time>
      </trkpt>
      <trkpt lat="45.11013" lon="4.57647">
        <ele>977.32</ele>
        <time>2018-08-07T11:15:24Z</time>
      </trkpt>
      <trkpt lat="45.11015" lon="4.5763">
        <ele>976.84</ele>
        <time>2018-08-07T11:15:40Z</time>
      </trkpt>
      <trkpt lat="45.11017" lon="4.57611">
        <ele>977.32</ele>
        <time>2018-08-07T11:15:58Z</time>
      </trkpt>
      <trkpt lat="45.11021" lon="4.57594">
        <ele>977.8</ele>
        <time>2018-08-07T11:16:15Z</time>
      </trkpt>
      <trkpt lat="45.11024" lon="4.57575">
        <ele>977.8</ele>
        <time>2018-08-07T11:16:34Z</time>
      </trkpt>
      <trkpt lat="45.11024" lon="4.57565">
        <ele>976.36</ele>
        <time>2018-08-07T11:16:45Z</time>
      </trkpt>
      <trkpt lat="45.11025" lon="4.57554">
        <ele>976.36</ele>
        <time>2018-08-07T11:17:02Z</time>
      </trkpt>
      <trkpt lat="45.11029" lon="4.57555">
        <ele>976.36</ele>
        <time>2018-08-07T11:17:24Z</time>
      </trkpt>
      <trkpt lat="45.11031" lon="4.57555">
        <ele>975.39</ele>
        <time>2018-08-07T11:17:55Z</time>
      </trkpt>
      <trkpt lat="45.1103" lon="4.57556">
        <ele>975.39</ele>
        <time>2018-08-07T11:18:21Z</time>
      </trkpt>
      <trkpt lat="45.11029" lon="4.57556">
        <ele>975.39</ele>
        <time>2018-08-07T11:18:49Z</time>
      </trkpt>
      <trkpt lat="45.1103" lon="4.57547">
        <ele>976.36</ele>
        <time>2018-08-07T11:19:12Z</time>
      </trkpt>
      <trkpt lat="45.11029" lon="4.57542">
        <ele>976.36</ele>
        <time>2018-08-07T11:19:22Z</time>
      </trkpt>
      <trkpt lat="45.11029" lon="4.57541">
        <ele>975.39</ele>
        <time>2018-08-07T11:19:29Z</time>
      </trkpt>
      <trkpt lat="45.11027" lon="4.57541">
        <ele>976.36</ele>
        <time>2018-08-07T11:19:53Z</time>
      </trkpt>
      <trkpt lat="45.11026" lon="4.57538">
        <ele>974.91</ele>
        <time>2018-08-07T11:20:01Z</time>
      </trkpt>
      <trkpt lat="45.11026" lon="4.57525">
        <ele>974.43</ele>
        <time>2018-08-07T11:20:20Z</time>
      </trkpt>
      <trkpt lat="45.11025" lon="4.57518">
        <ele>974.43</ele>
        <time>2018-08-07T11:20:43Z</time>
      </trkpt>
      <trkpt lat="45.11025" lon="4.57516">
        <ele>973.95</ele>
        <time>2018-08-07T11:21:06Z</time>
      </trkpt>
      <trkpt lat="45.11029" lon="4.57513">
        <ele>973.95</ele>
        <time>2018-08-07T11:21:33Z</time>
      </trkpt>
      <trkpt lat="45.11029" lon="4.57503">
        <ele>972.99</ele>
        <time>2018-08-07T11:21:49Z</time>
      </trkpt>
      <trkpt lat="45.11029" lon="4.575">
        <ele>972.99</ele>
        <time>2018-08-07T11:22:10Z</time>
      </trkpt>
      <trkpt lat="45.11028" lon="4.57493">
        <ele>972.99</ele>
        <time>2018-08-07T11:22:29Z</time>
      </trkpt>
      <trkpt lat="45.11027" lon="4.57478">
        <ele>972.03</ele>
        <time>2018-08-07T11:22:49Z</time>
      </trkpt>
      <trkpt lat="45.11025" lon="4.57473">
        <ele>970.59</ele>
        <time>2018-08-07T11:23:01Z</time>
      </trkpt>
      <trkpt lat="45.1102" lon="4.57457">
        <ele>969.15</ele>
        <time>2018-08-07T11:23:18Z</time>
      </trkpt>
      <trkpt lat="45.11011" lon="4.57444">
        <ele>968.67</ele>
        <time>2018-08-07T11:23:36Z</time>
      </trkpt>
      <trkpt lat="45.11007" lon="4.57434">
        <ele>967.7</ele>
        <time>2018-08-07T11:23:57Z</time>
      </trkpt>
      <trkpt lat="45.11001" lon="4.57422">
        <ele>966.74</ele>
        <time>2018-08-07T11:24:13Z</time>
      </trkpt>
      <trkpt lat="45.10989" lon="4.57408">
        <ele>965.78</ele>
        <time>2018-08-07T11:24:35Z</time>
      </trkpt>
      <trkpt lat="45.10982" lon="4.574">
        <ele>964.82</ele>
        <time>2018-08-07T11:24:53Z</time>
      </trkpt>
      <trkpt lat="45.10971" lon="4.57387">
        <ele>964.82</ele>
        <time>2018-08-07T11:25:14Z</time>
      </trkpt>
      <trkpt lat="45.10957" lon="4.57373">
        <ele>964.82</ele>
        <time>2018-08-07T11:25:34Z</time>
      </trkpt>
      <trkpt lat="45.10951" lon="4.57368">
        <ele>964.82</ele>
        <time>2018-08-07T11:25:54Z</time>
      </trkpt>
      <trkpt lat="45.10947" lon="4.57366">
        <ele>964.82</ele>
        <time>2018-08-07T11:26:27Z</time>
      </trkpt>
      <trkpt lat="45.10956" lon="4.57358">
        <ele>964.82</ele>
        <time>2018-08-07T11:26:53Z</time>
      </trkpt>
      <trkpt lat="45.10956" lon="4.57355">
        <ele>964.82</ele>
        <time>2018-08-07T11:27:24Z</time>
      </trkpt>
      <trkpt lat="45.10943" lon="4.57354">
        <ele>964.82</ele>
        <time>2018-08-07T11:27:46Z</time>
      </trkpt>
      <trkpt lat="45.10929" lon="4.57353">
        <ele>964.82</ele>
        <time>2018-08-07T11:28:08Z</time>
      </trkpt>
      <trkpt lat="45.10922" lon="4.57343">
        <ele>965.3</ele>
        <time>2018-08-07T11:28:27Z</time>
      </trkpt>
      <trkpt lat="45.10915" lon="4.57346">
        <ele>964.82</ele>
        <time>2018-08-07T11:28:49Z</time>
      </trkpt>
      <trkpt lat="45.10903" lon="4.57338">
        <ele>964.34</ele>
        <time>2018-08-07T11:29:07Z</time>
      </trkpt>
      <trkpt lat="45.10891" lon="4.57335">
        <ele>964.34</ele>
        <time>2018-08-07T11:29:25Z</time>
      </trkpt>
      <trkpt lat="45.10883" lon="4.57328">
        <ele>963.86</ele>
        <time>2018-08-07T11:29:45Z</time>
      </trkpt>
      <trkpt lat="45.10871" lon="4.57318">
        <ele>963.86</ele>
        <time>2018-08-07T11:30:08Z</time>
      </trkpt>
      <trkpt lat="45.10865" lon="4.57307">
        <ele>963.38</ele>
        <time>2018-08-07T11:30:29Z</time>
      </trkpt>
      <trkpt lat="45.10865" lon="4.57294">
        <ele>963.38</ele>
        <time>2018-08-07T11:30:45Z</time>
      </trkpt>
      <trkpt lat="45.10866" lon="4.57266">
        <ele>963.86</ele>
        <time>2018-08-07T11:31:04Z</time>
      </trkpt>
      <trkpt lat="45.10862" lon="4.57243">
        <ele>963.38</ele>
        <time>2018-08-07T11:31:23Z</time>
      </trkpt>
      <trkpt lat="45.10862" lon="4.57237">
        <ele>962.9</ele>
        <time>2018-08-07T11:31:46Z</time>
      </trkpt>
      <trkpt lat="45.10858" lon="4.57218">
        <ele>962.9</ele>
        <time>2018-08-07T11:32:09Z</time>
      </trkpt>
      <trkpt lat="45.10856" lon="4.57201">
        <ele>962.9</ele>
        <time>2018-08-07T11:32:27Z</time>
      </trkpt>
      <trkpt lat="45.10859" lon="4.57188">
        <ele>962.9</ele>
        <time>2018-08-07T11:32:42Z</time>
      </trkpt>
      <trkpt lat="45.10859" lon="4.57176">
        <ele>962.9</ele>
        <time>2018-08-07T11:33:05Z</time>
      </trkpt>
      <trkpt lat="45.10857" lon="4.57156">
        <ele>963.38</ele>
        <time>2018-08-07T11:33:24Z</time>
      </trkpt>
      <trkpt lat="45.10852" lon="4.57134">
        <ele>962.9</ele>
        <time>2018-08-07T11:33:42Z</time>
      </trkpt>
      <trkpt lat="45.10851" lon="4.57114">
        <ele>962.9</ele>
        <time>2018-08-07T11:34:01Z</time>
      </trkpt>
      <trkpt lat="45.10851" lon="4.57094">
        <ele>962.42</ele>
        <time>2018-08-07T11:34:19Z</time>
      </trkpt>
      <trkpt lat="45.10851" lon="4.57075">
        <ele>961.94</ele>
        <time>2018-08-07T11:34:40Z</time>
      </trkpt>
      <trkpt lat="45.10849" lon="4.57045">
        <ele>962.9</ele>
        <time>2018-08-07T11:34:59Z</time>
      </trkpt>
      <trkpt lat="45.10844" lon="4.57031">
        <ele>963.38</ele>
        <time>2018-08-07T11:35:21Z</time>
      </trkpt>
      <trkpt lat="45.10841" lon="4.57025">
        <ele>962.42</ele>
        <time>2018-08-07T11:35:54Z</time>
      </trkpt>
      <trkpt lat="45.10835" lon="4.57024">
        <ele>962.42</ele>
        <time>2018-08-07T11:36:28Z</time>
      </trkpt>
      <trkpt lat="45.10833" lon="4.57023">
        <ele>963.38</ele>
        <time>2018-08-07T11:36:59Z</time>
      </trkpt>
      <trkpt lat="45.10841" lon="4.57015">
        <ele>961.46</ele>
        <time>2018-08-07T11:37:19Z</time>
      </trkpt>
      <trkpt lat="45.10843" lon="4.57016">
        <ele>960.98</ele>
        <time>2018-08-07T11:37:43Z</time>
      </trkpt>
      <trkpt lat="45.10843" lon="4.57014">
        <ele>962.42</ele>
        <time>2018-08-07T11:38:04Z</time>
      </trkpt>
      <trkpt lat="45.10845" lon="4.57007">
        <ele>960.98</ele>
        <time>2018-08-07T11:38:33Z</time>
      </trkpt>
      <trkpt lat="45.10854" lon="4.56999">
        <ele>959.05</ele>
        <time>2018-08-07T11:38:57Z</time>
      </trkpt>
      <trkpt lat="45.10861" lon="4.56984">
        <ele>958.09</ele>
        <time>2018-08-07T11:39:16Z</time>
      </trkpt>
      <trkpt lat="45.10866" lon="4.56972">
        <ele>956.65</ele>
        <time>2018-08-07T11:39:35Z</time>
      </trkpt>
      <trkpt lat="45.10871" lon="4.56967">
        <ele>955.69</ele>
        <time>2018-08-07T11:39:56Z</time>
      </trkpt>
      <trkpt lat="45.10875" lon="4.56964">
        <ele>955.21</ele>
        <time>2018-08-07T11:40:19Z</time>
      </trkpt>
      <trkpt lat="45.1088" lon="4.56963">
        <ele>954.25</ele>
        <time>2018-08-07T11:40:34Z</time>
      </trkpt>
      <trkpt lat="45.10884" lon="4.56962">
        <ele>953.28</ele>
        <time>2018-08-07T11:41:04Z</time>
      </trkpt>
      <trkpt lat="45.10891" lon="4.56962">
        <ele>953.28</ele>
        <time>2018-08-07T11:41:38Z</time>
      </trkpt>
      <trkpt lat="45.10888" lon="4.56958">
        <ele>953.28</ele>
        <time>2018-08-07T11:42:09Z</time>
      </trkpt>
      <trkpt lat="45.10893" lon="4.56957">
        <ele>952.8</ele>
        <time>2018-08-07T11:42:28Z</time>
      </trkpt>
      <trkpt lat="45.10909" lon="4.56947">
        <ele>951.84</ele>
        <time>2018-08-07T11:42:49Z</time>
      </trkpt>
      <trkpt lat="45.10917" lon="4.56941">
        <ele>951.36</ele>
        <time>2018-08-07T11:43:09Z</time>
      </trkpt>
      <trkpt lat="45.1092" lon="4.56936">
        <ele>949.92</ele>
        <time>2018-08-07T11:43:25Z</time>
      </trkpt>
      <trkpt lat="45.10922" lon="4.56931">
        <ele>948.96</ele>
        <time>2018-08-07T11:43:53Z</time>
      </trkpt>
      <trkpt lat="45.10928" lon="4.56918">
        <ele>947.52</ele>
        <time>2018-08-07T11:44:11Z</time>
      </trkpt>
      <trkpt lat="45.10929" lon="4.56916">
        <ele>947.04</ele>
        <time>2018-08-07T11:44:37Z</time>
      </trkpt>
      <trkpt lat="45.10936" lon="4.56901">
        <ele>945.11</ele>
        <time>2018-08-07T11:44:59Z</time>
      </trkpt>
      <trkpt lat="45.10941" lon="4.56896">
        <ele>944.63</ele>
        <time>2018-08-07T11:45:20Z</time>
      </trkpt>
      <trkpt lat="45.10944" lon="4.56885">
        <ele>943.67</ele>
        <time>2018-08-07T11:45:53Z</time>
      </trkpt>
      <trkpt lat="45.10944" lon="4.56881">
        <ele>943.67</ele>
        <time>2018-08-07T11:46:17Z</time>
      </trkpt>
      <trkpt lat="45.10944" lon="4.56873">
        <ele>943.19</ele>
        <time>2018-08-07T11:46:44Z</time>
      </trkpt>
      <trkpt lat="45.10944" lon="4.56868">
        <ele>942.71</ele>
        <time>2018-08-07T11:47:13Z</time>
      </trkpt>
      <trkpt lat="45.10942" lon="4.56865">
        <ele>942.71</ele>
        <time>2018-08-07T11:47:35Z</time>
      </trkpt>
      <trkpt lat="45.10944" lon="4.56849">
        <ele>941.75</ele>
        <time>2018-08-07T11:47:53Z</time>
      </trkpt>
      <trkpt lat="45.10945" lon="4.56835">
        <ele>939.83</ele>
        <time>2018-08-07T11:48:10Z</time>
      </trkpt>
      <trkpt lat="45.10943" lon="4.56825">
        <ele>938.38</ele>
        <time>2018-08-07T11:48:25Z</time>
      </trkpt>
      <trkpt lat="45.10938" lon="4.5681">
        <ele>938.38</ele>
        <time>2018-08-07T11:48:44Z</time>
      </trkpt>
      <trkpt lat="45.10933" lon="4.56797">
        <ele>936.94</ele>
        <time>2018-08-07T11:49:03Z</time>
      </trkpt>
      <trkpt lat="45.10928" lon="4.56782">
        <ele>935.02</ele>
        <time>2018-08-07T11:49:24Z</time>
      </trkpt>
      <trkpt lat="45.10922" lon="4.56766">
        <ele>933.58</ele>
        <time>2018-08-07T11:49:46Z</time>
      </trkpt>
      <trkpt lat="45.10916" lon="4.5675">
        <ele>931.65</ele>
        <time>2018-08-07T11:50:07Z</time>
      </trkpt>
      <trkpt lat="45.10914" lon="4.56739">
        <ele>930.69</ele>
        <time>2018-08-07T11:50:25Z</time>
      </trkpt>
      <trkpt lat="45.1091" lon="4.5672">
        <ele>929.25</ele>
        <time>2018-08-07T11:50:46Z</time>
      </trkpt>
      <trkpt lat="45.10906" lon="4.56698">
        <ele>929.25</ele>
        <time>2018-08-07T11:51:07Z</time>
      </trkpt>
      <trkpt lat="45.10904" lon="4.56679">
        <ele>929.25</ele>
        <time>2018-08-07T11:51:30Z</time>
      </trkpt>
      <trkpt lat="45.10902" lon="4.56669">
        <ele>929.25</ele>
        <time>2018-08-07T11:51:59Z</time>
      </trkpt>
      <trkpt lat="45.10897" lon="4.56664">
        <ele>929.73</ele>
        <time>2018-08-07T11:52:34Z</time>
      </trkpt>
      <trkpt lat="45.10898" lon="4.56664">
        <ele>930.69</ele>
        <time>2018-08-07T11:52:44Z</time>
      </trkpt>
      <trkpt lat="45.10894" lon="4.56665">
        <ele>931.17</ele>
        <time>2018-08-07T11:53:09Z</time>
      </trkpt>
      <trkpt lat="45.10892" lon="4.56664">
        <ele>930.21</ele>
        <time>2018-08-07T11:53:36Z</time>
      </trkpt>
      <trkpt lat="45.10891" lon="4.56657">
        <ele>929.25</ele>
        <time>2018-08-07T11:54:07Z</time>
      </trkpt>
      <trkpt lat="45.10888" lon="4.56656">
        <ele>929.25</ele>
        <time>2018-08-07T11:54:36Z</time>
      </trkpt>
      <trkpt lat="45.10888" lon="4.56651">
        <ele>931.17</ele>
        <time>2018-08-07T11:55:09Z</time>
      </trkpt>
      <trkpt lat="45.10887" lon="4.5665">
        <ele>929.73</ele>
        <time>2018-08-07T11:55:29Z</time>
      </trkpt>
      <trkpt lat="45.10889" lon="4.5665">
        <ele>929.25</ele>
        <time>2018-08-07T11:55:58Z</time>
      </trkpt>
      <trkpt lat="45.10887" lon="4.56646">
        <ele>929.25</ele>
        <time>2018-08-07T11:56:20Z</time>
      </trkpt>
      <trkpt lat="45.10882" lon="4.56631">
        <ele>928.77</ele>
        <time>2018-08-07T11:56:39Z</time>
      </trkpt>
      <trkpt lat="45.10877" lon="4.56613">
        <ele>927.33</ele>
        <time>2018-08-07T11:57:01Z</time>
      </trkpt>
      <trkpt lat="45.10873" lon="4.566">
        <ele>926.85</ele>
        <time>2018-08-07T11:57:20Z</time>
      </trkpt>
      <trkpt lat="45.10872" lon="4.56584">
        <ele>927.81</ele>
        <time>2018-08-07T11:57:38Z</time>
      </trkpt>
      <trkpt lat="45.10872" lon="4.56574">
        <ele>926.37</ele>
        <time>2018-08-07T11:57:53Z</time>
      </trkpt>
      <trkpt lat="45.10873" lon="4.56563">
        <ele>926.37</ele>
        <time>2018-08-07T11:58:12Z</time>
      </trkpt>
      <trkpt lat="45.10872" lon="4.56542">
        <ele>925.41</ele>
        <time>2018-08-07T11:58:34Z</time>
      </trkpt>
      <trkpt lat="45.10866" lon="4.56522">
        <ele>923.96</ele>
        <time>2018-08-07T11:58:53Z</time>
      </trkpt>
      <trkpt lat="45.10864" lon="4.5651">
        <ele>922.04</ele>
        <time>2018-08-07T11:59:12Z</time>
      </trkpt>
      <trkpt lat="45.10864" lon="4.56497">
        <ele>922.04</ele>
        <time>2018-08-07T11:59:33Z</time>
      </trkpt>
      <trkpt lat="45.1086" lon="4.56475">
        <ele>921.56</ele>
        <time>2018-08-07T11:59:56Z</time>
      </trkpt>
      <trkpt lat="45.10863" lon="4.56451">
        <ele>921.08</ele>
        <time>2018-08-07T12:00:11Z</time>
      </trkpt>
      <trkpt lat="45.10862" lon="4.56441">
        <ele>921.56</ele>
        <time>2018-08-07T12:00:32Z</time>
      </trkpt>
      <trkpt lat="45.10859" lon="4.56428">
        <ele>921.56</ele>
        <time>2018-08-07T12:00:49Z</time>
      </trkpt>
      <trkpt lat="45.10854" lon="4.56414">
        <ele>920.6</ele>
        <time>2018-08-07T12:01:07Z</time>
      </trkpt>
      <trkpt lat="45.1085" lon="4.56407">
        <ele>919.16</ele>
        <time>2018-08-07T12:01:16Z</time>
      </trkpt>
      <trkpt lat="45.1084" lon="4.56391">
        <ele>918.2</ele>
        <time>2018-08-07T12:01:42Z</time>
      </trkpt>
      <trkpt lat="45.10829" lon="4.56374">
        <ele>918.2</ele>
        <time>2018-08-07T12:02:02Z</time>
      </trkpt>
      <trkpt lat="45.10821" lon="4.56359">
        <ele>918.68</ele>
        <time>2018-08-07T12:02:22Z</time>
      </trkpt>
      <trkpt lat="45.10812" lon="4.56342">
        <ele>919.16</ele>
        <time>2018-08-07T12:02:43Z</time>
      </trkpt>
      <trkpt lat="45.10813" lon="4.56329">
        <ele>918.2</ele>
        <time>2018-08-07T12:03:03Z</time>
      </trkpt>
      <trkpt lat="45.10812" lon="4.56324">
        <ele>918.2</ele>
        <time>2018-08-07T12:03:17Z</time>
      </trkpt>
      <trkpt lat="45.10804" lon="4.56315">
        <ele>916.75</ele>
        <time>2018-08-07T12:03:33Z</time>
      </trkpt>
      <trkpt lat="45.10804" lon="4.56314">
        <ele>916.27</ele>
        <time>2018-08-07T12:03:55Z</time>
      </trkpt>
      <trkpt lat="45.10803" lon="4.56313">
        <ele>917.24</ele>
        <time>2018-08-07T12:04:11Z</time>
      </trkpt>
      <trkpt lat="45.1081" lon="4.56316">
        <ele>917.24</ele>
        <time>2018-08-07T12:04:29Z</time>
      </trkpt>
      <trkpt lat="45.10811" lon="4.56322">
        <ele>916.27</ele>
        <time>2018-08-07T12:04:45Z</time>
      </trkpt>
      <trkpt lat="45.10809" lon="4.56327">
        <ele>917.72</ele>
        <time>2018-08-07T12:05:28Z</time>
      </trkpt>
      <trkpt lat="45.10812" lon="4.56324">
        <ele>916.27</ele>
        <time>2018-08-07T12:06:05Z</time>
      </trkpt>
      <trkpt lat="45.10812" lon="4.56323">
        <ele>916.27</ele>
        <time>2018-08-07T12:06:37Z</time>
      </trkpt>
      <trkpt lat="45.10815" lon="4.56321">
        <ele>916.27</ele>
        <time>2018-08-07T12:07:14Z</time>
      </trkpt>
      <trkpt lat="45.10812" lon="4.56321">
        <ele>915.79</ele>
        <time>2018-08-07T12:07:53Z</time>
      </trkpt>
      <trkpt lat="45.10808" lon="4.56323">
        <ele>915.79</ele>
        <time>2018-08-07T12:08:30Z</time>
      </trkpt>
      <trkpt lat="45.1081" lon="4.56321">
        <ele>915.79</ele>
        <time>2018-08-07T12:09:09Z</time>
      </trkpt>
      <trkpt lat="45.1081" lon="4.56321">
        <ele>917.24</ele>
        <time>2018-08-07T12:09:15Z</time>
      </trkpt>
      <trkpt lat="45.10804" lon="4.56321">
        <ele>917.72</ele>
        <time>2018-08-07T12:09:54Z</time>
      </trkpt>
      <trkpt lat="45.10808" lon="4.56318">
        <ele>916.27</ele>
        <time>2018-08-07T12:10:31Z</time>
      </trkpt>
      <trkpt lat="45.10808" lon="4.5632">
        <ele>917.72</ele>
        <time>2018-08-07T12:10:44Z</time>
      </trkpt>
      <trkpt lat="45.10811" lon="4.56328">
        <ele>918.68</ele>
        <time>2018-08-07T12:10:59Z</time>
      </trkpt>
      <trkpt lat="45.10808" lon="4.56326">
        <ele>917.72</ele>
        <time>2018-08-07T12:11:13Z</time>
      </trkpt>
      <trkpt lat="45.10799" lon="4.56317">
        <ele>917.72</ele>
        <time>2018-08-07T12:11:24Z</time>
      </trkpt>
      <trkpt lat="45.10777" lon="4.56301">
        <ele>916.27</ele>
        <time>2018-08-07T12:11:41Z</time>
      </trkpt>
      <trkpt lat="45.10762" lon="4.56292">
        <ele>915.79</ele>
        <time>2018-08-07T12:11:57Z</time>
      </trkpt>
      <trkpt lat="45.10746" lon="4.56288">
        <ele>915.79</ele>
        <time>2018-08-07T12:12:13Z</time>
      </trkpt>
      <trkpt lat="45.10722" lon="4.56281">
        <ele>915.79</ele>
        <time>2018-08-07T12:12:30Z</time>
      </trkpt>
      <trkpt lat="45.10707" lon="4.56277">
        <ele>915.79</ele>
        <time>2018-08-07T12:12:44Z</time>
      </trkpt>
      <trkpt lat="45.10698" lon="4.56273">
        <ele>915.79</ele>
        <time>2018-08-07T12:12:54Z</time>
      </trkpt>
      <trkpt lat="45.10693" lon="4.56271">
        <ele>915.79</ele>
        <time>2018-08-07T12:12:57Z</time>
      </trkpt>
      <trkpt lat="45.10676" lon="4.56267">
        <ele>915.79</ele>
        <time>2018-08-07T12:13:12Z</time>
      </trkpt>
      <trkpt lat="45.10662" lon="4.5626">
        <ele>915.31</ele>
        <time>2018-08-07T12:13:29Z</time>
      </trkpt>
      <trkpt lat="45.10658" lon="4.56258">
        <ele>916.75</ele>
        <time>2018-08-07T12:13:32Z</time>
      </trkpt>
      <trkpt lat="45.10646" lon="4.56249">
        <ele>917.72</ele>
        <time>2018-08-07T12:13:47Z</time>
      </trkpt>
      <trkpt lat="45.10646" lon="4.56249">
        <ele>915.79</ele>
        <time>2018-08-07T12:13:49Z</time>
      </trkpt>
      <trkpt lat="45.10646" lon="4.56249">
        <ele>919.16</ele>
        <time>2018-08-07T12:13:50Z</time>
      </trkpt>
      <trkpt lat="45.10646" lon="4.56249">
        <ele>919.16</ele>
        <time>2018-08-07T12:13:51Z</time>
      </trkpt>
      <trkpt lat="45.10645" lon="4.56244">
        <ele>918.2</ele>
        <time>2018-08-07T12:14:07Z</time>
      </trkpt>
      <trkpt lat="45.10643" lon="4.56241">
        <ele>916.27</ele>
        <time>2018-08-07T12:14:19Z</time>
      </trkpt>
      <trkpt lat="45.10641" lon="4.56241">
        <ele>917.72</ele>
        <time>2018-08-07T12:14:24Z</time>
      </trkpt>
      <trkpt lat="45.10626" lon="4.56239">
        <ele>917.72</ele>
        <time>2018-08-07T12:14:40Z</time>
      </trkpt>
      <trkpt lat="45.10612" lon="4.56237">
        <ele>918.2</ele>
        <time>2018-08-07T12:14:59Z</time>
      </trkpt>
      <trkpt lat="45.10602" lon="4.56235">
        <ele>916.75</ele>
        <time>2018-08-07T12:15:11Z</time>
      </trkpt>
      <trkpt lat="45.10598" lon="4.56234">
        <ele>918.2</ele>
        <time>2018-08-07T12:15:17Z</time>
      </trkpt>
      <trkpt lat="45.10592" lon="4.56232">
        <ele>917.24</ele>
        <time>2018-08-07T12:15:25Z</time>
      </trkpt>
      <trkpt lat="45.10589" lon="4.56231">
        <ele>918.2</ele>
        <time>2018-08-07T12:15:30Z</time>
      </trkpt>
      <trkpt lat="45.10588" lon="4.56232">
        <ele>915.31</ele>
        <time>2018-08-07T12:15:34Z</time>
      </trkpt>
      <trkpt lat="45.10582" lon="4.56229">
        <ele>917.72</ele>
        <time>2018-08-07T12:15:50Z</time>
      </trkpt>
      <trkpt lat="45.1058" lon="4.56228">
        <ele>915.79</ele>
        <time>2018-08-07T12:15:53Z</time>
      </trkpt>
      <trkpt lat="45.10579" lon="4.56223">
        <ele>916.75</ele>
        <time>2018-08-07T12:16:21Z</time>
      </trkpt>
      <trkpt lat="45.1058" lon="4.56224">
        <ele>915.31</ele>
        <time>2018-08-07T12:16:28Z</time>
      </trkpt>
      <trkpt lat="45.10579" lon="4.56224">
        <ele>916.75</ele>
        <time>2018-08-07T12:16:34Z</time>
      </trkpt>
      <trkpt lat="45.1058" lon="4.56224">
        <ele>915.79</ele>
        <time>2018-08-07T12:16:44Z</time>
      </trkpt>
      <trkpt lat="45.10577" lon="4.56219">
        <ele>915.79</ele>
        <time>2018-08-07T12:17:10Z</time>
      </trkpt>
      <trkpt lat="45.10574" lon="4.56223">
        <ele>915.79</ele>
        <time>2018-08-07T12:17:37Z</time>
      </trkpt>
      <trkpt lat="45.10574" lon="4.56223">
        <ele>916.75</ele>
        <time>2018-08-07T12:17:44Z</time>
      </trkpt>
      <trkpt lat="45.10576" lon="4.56223">
        <ele>915.79</ele>
        <time>2018-08-07T12:17:59Z</time>
      </trkpt>
      <trkpt lat="45.10576" lon="4.56223">
        <ele>917.24</ele>
        <time>2018-08-07T12:18:23Z</time>
      </trkpt>
      <trkpt lat="45.10575" lon="4.56225">
        <ele>916.27</ele>
        <time>2018-08-07T12:18:35Z</time>
      </trkpt>
      <trkpt lat="45.10573" lon="4.56229">
        <ele>915.31</ele>
        <time>2018-08-07T12:19:02Z</time>
      </trkpt>
      <trkpt lat="45.10569" lon="4.56228">
        <ele>915.31</ele>
        <time>2018-08-07T12:19:07Z</time>
      </trkpt>
      <trkpt lat="45.10565" lon="4.56226">
        <ele>915.31</ele>
        <time>2018-08-07T12:19:11Z</time>
      </trkpt>
      <trkpt lat="45.10552" lon="4.5622">
        <ele>915.31</ele>
        <time>2018-08-07T12:19:26Z</time>
      </trkpt>
      <trkpt lat="45.10541" lon="4.56221">
        <ele>916.27</ele>
        <time>2018-08-07T12:19:38Z</time>
      </trkpt>
      <trkpt lat="45.10537" lon="4.56223">
        <ele>917.24</ele>
        <time>2018-08-07T12:19:52Z</time>
      </trkpt>
      <trkpt lat="45.10535" lon="4.5623">
        <ele>917.24</ele>
        <time>2018-08-07T12:19:57Z</time>
      </trkpt>
      <trkpt lat="45.10526" lon="4.56244">
        <ele>918.68</ele>
        <time>2018-08-07T12:20:13Z</time>
      </trkpt>
      <trkpt lat="45.10524" lon="4.56244">
        <ele>917.24</ele>
        <time>2018-08-07T12:20:15Z</time>
      </trkpt>
      <trkpt lat="45.10523" lon="4.56237">
        <ele>918.68</ele>
        <time>2018-08-07T12:20:22Z</time>
      </trkpt>
      <trkpt lat="45.10522" lon="4.56236">
        <ele>916.75</ele>
        <time>2018-08-07T12:20:35Z</time>
      </trkpt>
      <trkpt lat="45.10522" lon="4.5624">
        <ele>917.72</ele>
        <time>2018-08-07T12:20:49Z</time>
      </trkpt>
      <trkpt lat="45.10523" lon="4.56238">
        <ele>921.56</ele>
        <time>2018-08-07T12:21:00Z</time>
      </trkpt>
      <trkpt lat="45.10523" lon="4.56238">
        <ele>918.2</ele>
        <time>2018-08-07T12:21:01Z</time>
      </trkpt>
      <trkpt lat="45.10522" lon="4.56236">
        <ele>917.24</ele>
        <time>2018-08-07T12:21:10Z</time>
      </trkpt>
      <trkpt lat="45.10522" lon="4.56234">
        <ele>918.2</ele>
        <time>2018-08-07T12:21:16Z</time>
      </trkpt>
      <trkpt lat="45.10522" lon="4.56233">
        <ele>917.24</ele>
        <time>2018-08-07T12:21:18Z</time>
      </trkpt>
    </trkseg>
  </trk>
</gpx>